Погода Намибена неделю

Намибе, Ангола

19 - 25 июня
  • 19июня
    Сегодня
    +12°
    +23°
    Облачно с прояснениями
    ВремяПогодаТемператураВлажностьДавлениеВетер, м/сВероятность осадков
    01:00Практически безоблачно+14°C96 %760 мм2.0 м/с0 %
    04:00Облачно с прояснениями+13°C99 %759 мм2.6 м/с0 %
    07:00Пасмурно, сплошная облачность+14°C98 %761 мм3.2 м/с1 %
    10:00Облачно с прояснениями+19°C79 %761 мм2.0 м/с1 %
    13:00Облачно с прояснениями+22°C70 %759 мм4.0 м/с0 %
    16:00Небольшая облачность+16°C73 %758 мм4.1 м/с0 %
    19:00Ясно и безоблачно+16°C84 %760 мм3.6 м/с0 %
    22:00Ясно и безоблачно+14°C89 %761 мм1.1 м/с0 %
  • 20июня
    Четверг
    +13°
    +23°
    Ясно и безоблачно
    ВремяПогодаТемператураВлажностьДавлениеВетер, м/сВероятность осадков
    01:00Ясно и безоблачно+14°C96 %760 мм2.3 м/с0 %
    04:00Практически безоблачно+13°C97 %759 мм2.4 м/с0 %
    07:00Небольшая облачность+12°C94 %760 мм1.9 м/с0 %
    10:00Небольшая облачность+19°C81 %761 мм2.1 м/с0 %
    13:00Ясно и безоблачно+23°C72 %759 мм3.7 м/с0 %
    16:00Ясно и безоблачно+16°C77 %758 мм3.6 м/с0 %
    19:00Ясно и безоблачно+16°C84 %759 мм2.6 м/с0 %
    22:00Ясно и безоблачно+15°C89 %761 мм2.0 м/с0 %
  • 21июня
    Пятница
    +13°
    +24°
    Ясно и безоблачно
    ВремяПогодаТемператураВлажностьДавлениеВетер, м/сВероятность осадков
    01:00Ясно и безоблачно+15°C92 %760 мм4.0 м/с0 %
    04:00Небольшая облачность+13°C96 %760 мм3.9 м/с0 %
    07:00Облачно с прояснениями+14°C94 %760 мм3.3 м/с0 %
    10:00Практически безоблачно+21°C73 %761 мм3.6 м/с0 %
    13:00Ясно и безоблачно+24°C63 %759 мм5.0 м/с0 %
    16:00Ясно и безоблачно+18°C69 %758 мм5.4 м/с0 %
    19:00Ясно и безоблачно+17°C86 %759 мм3.1 м/с0 %
    22:00Ясно и безоблачно+15°C90 %760 мм1.1 м/с0 %
  • 22июня
    Суббота
    +13°
    +33°
    Практически безоблачно
    ВремяПогодаТемператураВлажностьДавлениеВетер, м/сВероятность осадков
    01:00Ясно и безоблачно+15°C90 %759 мм2.4 м/с0 %
    04:00Практически безоблачно+14°C85 %758 мм3.3 м/с0 %
    07:00Ясно и безоблачно+15°C68 %758 мм3.0 м/с0 %
    10:00Ясно и безоблачно+30°C23 %759 мм0.6 м/с0 %
    13:00Практически безоблачно+27°C55 %758 мм4.9 м/с0 %
    16:00Ясно и безоблачно+18°C69 %758 мм3.7 м/с0 %
    19:00Ясно и безоблачно+19°C85 %759 мм1.7 м/с0 %
    22:00Ясно и безоблачно+17°C87 %759 мм2.0 м/с0 %
  • 23июня
    Воскресенье
    +15°
    +25°
    Ясно и безоблачно
    ВремяПогодаТемператураВлажностьДавлениеВетер, м/сВероятность осадков
    01:00Ясно и безоблачно+18°C78 %759 мм0.9 м/с0 %
    04:00Ясно и безоблачно+15°C72 %758 мм1.9 м/с0 %
    07:00Ясно и безоблачно+15°C61 %758 мм3.0 м/с0 %
    10:00Практически безоблачно+24°C66 %760 мм5.8 м/с0 %
    13:00Ясно и безоблачно+24°C73 %759 мм5.4 м/с0 %
    16:00Ясно и безоблачно+18°C76 %758 мм4.1 м/с0 %
    19:00Ясно и безоблачно+18°C89 %759 мм0.9 м/с0 %
    22:00Ясно и безоблачно+17°C92 %759 мм1.6 м/с0 %
Мы используем cookies
Соглашаюсь